sensor_id;sensor_type;location;lat;lon;timestamp;pressure;altitude;pressure_sealevel;temperature;humidity
16451;BME280;12243;42.708;23.310;2023-02-23T00:01:16;94884.50;;;7.88;74.93
16451;BME280;12243;42.708;23.310;2023-02-23T00:03:44;94884.50;;;7.88;75.15
16451;BME280;12243;42.708;23.310;2023-02-23T00:06:11;94891.78;;;7.83;75.05
16451;BME280;12243;42.708;23.310;2023-02-23T00:08:41;94885.19;;;7.79;75.52
16451;BME280;12243;42.708;23.310;2023-02-23T00:11:10;94894.53;;;7.81;76.29
16451;BME280;12243;42.708;23.310;2023-02-23T00:13:38;94897.91;;;7.71;76.73
16451;BME280;12243;42.708;23.310;2023-02-23T00:16:06;94895.47;;;7.56;77.63
16451;BME280;12243;42.708;23.310;2023-02-23T00:18:34;94904.03;;;7.46;78.26
16451;BME280;12243;42.708;23.310;2023-02-23T00:21:11;94894.16;;;7.39;79.15
16451;BME280;12243;42.708;23.310;2023-02-23T00:23:42;94895.19;;;7.37;79.38
16451;BME280;12243;42.708;23.310;2023-02-23T00:26:10;94898.47;;;7.39;78.49
16451;BME280;12243;42.708;23.310;2023-02-23T00:28:40;94898.00;;;7.34;79.60
16451;BME280;12243;42.708;23.310;2023-02-23T00:31:08;94895.19;;;7.37;79.73
16451;BME280;12243;42.708;23.310;2023-02-23T00:33:36;94894.59;;;7.33;79.14
16451;BME280;12243;42.708;23.310;2023-02-23T00:36:05;94903.41;;;7.31;79.41
16451;BME280;12243;42.708;23.310;2023-02-23T00:38:35;94902.53;;;7.19;81.24
16451;BME280;12243;42.708;23.310;2023-02-23T00:41:07;94896.69;;;7.04;81.36
16451;BME280;12243;42.708;23.310;2023-02-23T00:43:35;94901.25;;;7.01;81.98
16451;BME280;12243;42.708;23.310;2023-02-23T00:46:03;94891.00;;;6.99;81.96
16451;BME280;12243;42.708;23.310;2023-02-23T00:48:32;94896.63;;;6.93;82.04
16451;BME280;12243;42.708;23.310;2023-02-23T00:51:00;94896.34;;;6.85;83.20
16451;BME280;12243;42.708;23.310;2023-02-23T00:53:28;94896.56;;;6.82;82.79
16451;BME280;12243;42.708;23.310;2023-02-23T00:55:55;94894.41;;;6.76;83.22
16451;BME280;12243;42.708;23.310;2023-02-23T00:58:24;94900.38;;;6.76;83.64
16451;BME280;12243;42.708;23.310;2023-02-23T01:00:52;94896.13;;;6.88;82.38
16451;BME280;12243;42.708;23.310;2023-02-23T01:03:20;94892.94;;;6.84;82.76
16451;BME280;12243;42.708;23.310;2023-02-23T01:05:46;94896.44;;;6.83;82.91
16451;BME280;12243;42.708;23.310;2023-02-23T01:08:15;94898.75;;;6.75;82.91
16451;BME280;12243;42.708;23.310;2023-02-23T01:10:44;94896.50;;;6.71;83.18
16451;BME280;12243;42.708;23.310;2023-02-23T01:13:17;94893.72;;;6.61;82.83
16451;BME280;12243;42.708;23.310;2023-02-23T01:15:46;94895.56;;;6.59;83.12
16451;BME280;12243;42.708;23.310;2023-02-23T01:18:14;94894.75;;;6.58;83.36
16451;BME280;12243;42.708;23.310;2023-02-23T01:20:43;94891.75;;;6.64;82.75
16451;BME280;12243;42.708;23.310;2023-02-23T01:23:11;94897.34;;;6.58;83.50
16451;BME280;12243;42.708;23.310;2023-02-23T01:25:39;94888.22;;;6.65;83.18
16451;BME280;12243;42.708;23.310;2023-02-23T01:28:07;94886.59;;;6.52;83.63
16451;BME280;12243;42.708;23.310;2023-02-23T01:30:37;94888.69;;;6.34;84.16
16451;BME280;12243;42.708;23.310;2023-02-23T01:33:07;94886.31;;;6.31;84.39
16451;BME280;12243;42.708;23.310;2023-02-23T01:35:35;94887.38;;;6.28;85.15
16451;BME280;12243;42.708;23.310;2023-02-23T01:38:02;94889.13;;;6.28;85.40
16451;BME280;12243;42.708;23.310;2023-02-23T01:40:29;94893.78;;;6.23;85.85
16451;BME280;12243;42.708;23.310;2023-02-23T01:42:59;94889.34;;;6.25;85.30
16451;BME280;12243;42.708;23.310;2023-02-23T01:45:32;94894.50;;;6.25;85.92
16451;BME280;12243;42.708;23.310;2023-02-23T01:48:04;94890.25;;;6.24;84.88
16451;BME280;12243;42.708;23.310;2023-02-23T01:50:40;94882.28;;;6.27;85.92
16451;BME280;12243;42.708;23.310;2023-02-23T01:53:08;94884.66;;;6.30;85.29
16451;BME280;12243;42.708;23.310;2023-02-23T01:55:37;94891.38;;;6.45;84.58
16451;BME280;12243;42.708;23.310;2023-02-23T01:58:07;94884.84;;;6.52;83.42
16451;BME280;12243;42.708;23.310;2023-02-23T02:00:42;94884.75;;;6.41;83.32
16451;BME280;12243;42.708;23.310;2023-02-23T02:03:16;94891.81;;;6.39;83.67
16451;BME280;12243;42.708;23.310;2023-02-23T02:05:49;94882.06;;;6.30;84.09
16451;BME280;12243;42.708;23.310;2023-02-23T02:08:17;94876.50;;;6.23;84.51
16451;BME280;12243;42.708;23.310;2023-02-23T02:10:45;94890.78;;;6.16;84.54
16451;BME280;12243;42.708;23.310;2023-02-23T02:13:19;94883.13;;;6.02;85.74
16451;BME280;12243;42.708;23.310;2023-02-23T02:16:16;94884.56;;;6.18;85.33
16451;BME280;12243;42.708;23.310;2023-02-23T02:19:02;94879.19;;;5.96;85.87
16451;BME280;12243;42.708;23.310;2023-02-23T02:22:10;94879.44;;;5.93;86.60
16451;BME280;12243;42.708;23.310;2023-02-23T02:28:17;94880.63;;;5.87;88.37
16451;BME280;12243;42.708;23.310;2023-02-23T02:33:58;94887.22;;;5.79;88.35
16451;BME280;12243;42.708;23.310;2023-02-23T02:39:56;94879.81;;;5.87;88.11
16451;BME280;12243;42.708;23.310;2023-02-23T02:42:49;94881.56;;;5.86;88.02
16451;BME280;12243;42.708;23.310;2023-02-23T02:45:25;94889.19;;;5.88;87.43
16451;BME280;12243;42.708;23.310;2023-02-23T02:47:55;94885.31;;;5.95;86.69
16451;BME280;12243;42.708;23.310;2023-02-23T02:50:29;94885.69;;;5.89;86.75
16451;BME280;12243;42.708;23.310;2023-02-23T02:53:05;94884.78;;;5.90;87.77
16451;BME280;12243;42.708;23.310;2023-02-23T02:55:35;94884.03;;;5.88;86.72
16451;BME280;12243;42.708;23.310;2023-02-23T02:58:05;94880.00;;;5.84;87.96
16451;BME280;12243;42.708;23.310;2023-02-23T03:00:36;94884.22;;;5.85;87.08
16451;BME280;12243;42.708;23.310;2023-02-23T03:03:30;94886.41;;;5.91;84.96
16451;BME280;12243;42.708;23.310;2023-02-23T03:06:17;94881.97;;;5.80;85.71
16451;BME280;12243;42.708;23.310;2023-02-23T03:09:12;94881.09;;;5.54;86.84
16451;BME280;12243;42.708;23.310;2023-02-23T03:12:10;94885.13;;;5.45;87.05
16451;BME280;12243;42.708;23.310;2023-02-23T03:15:03;94878.94;;;5.48;87.85
16451;BME280;12243;42.708;23.310;2023-02-23T03:17:55;94883.59;;;5.56;86.81
16451;BME280;12243;42.708;23.310;2023-02-23T03:20:46;94888.22;;;5.50;87.65
16451;BME280;12243;42.708;23.310;2023-02-23T03:23:39;94887.50;;;5.48;87.85
16451;BME280;12243;42.708;23.310;2023-02-23T03:26:31;94885.34;;;5.55;86.47
16451;BME280;12243;42.708;23.310;2023-02-23T03:29:25;94893.00;;;5.44;86.33
16451;BME280;12243;42.708;23.310;2023-02-23T03:32:18;94892.75;;;5.47;86.85
16451;BME280;12243;42.708;23.310;2023-02-23T03:35:07;94898.16;;;5.44;86.53
16451;BME280;12243;42.708;23.310;2023-02-23T03:37:58;94901.75;;;5.41;85.72
16451;BME280;12243;42.708;23.310;2023-02-23T03:40:46;94902.78;;;5.39;87.06
16451;BME280;12243;42.708;23.310;2023-02-23T03:43:37;94902.47;;;5.43;86.56
16451;BME280;12243;42.708;23.310;2023-02-23T03:46:26;94907.00;;;5.40;86.21
16451;BME280;12243;42.708;23.310;2023-02-23T03:49:14;94909.47;;;5.29;86.05
16451;BME280;12243;42.708;23.310;2023-02-23T03:52:05;94906.13;;;5.14;88.34
16451;BME280;12243;42.708;23.310;2023-02-23T03:54:55;94906.81;;;5.16;88.52
16451;BME280;12243;42.708;23.310;2023-02-23T03:57:44;94912.53;;;5.21;88.62
16451;BME280;12243;42.708;23.310;2023-02-23T04:00:35;94913.56;;;5.18;89.11
16451;BME280;12243;42.708;23.310;2023-02-23T04:03:22;94917.50;;;5.24;88.29
16451;BME280;12243;42.708;23.310;2023-02-23T04:06:10;94909.72;;;5.11;89.21
16451;BME280;12243;42.708;23.310;2023-02-23T04:08:59;94914.91;;;4.97;90.06
16451;BME280;12243;42.708;23.310;2023-02-23T04:11:49;94920.09;;;4.97;91.13
16451;BME280;12243;42.708;23.310;2023-02-23T04:14:38;94916.81;;;5.08;91.13
16451;BME280;12243;42.708;23.310;2023-02-23T04:17:08;94914.50;;;5.17;90.86
16451;BME280;12243;42.708;23.310;2023-02-23T04:19:35;94916.69;;;5.23;90.17
16451;BME280;12243;42.708;23.310;2023-02-23T04:22:02;94913.16;;;5.24;89.82
16451;BME280;12243;42.708;23.310;2023-02-23T04:24:29;94904.69;;;5.22;89.37
16451;BME280;12243;42.708;23.310;2023-02-23T04:26:55;94907.47;;;5.19;89.44
16451;BME280;12243;42.708;23.310;2023-02-23T04:29:22;94903.97;;;5.20;90.33
16451;BME280;12243;42.708;23.310;2023-02-23T04:31:49;94905.63;;;5.21;90.27
16451;BME280;12243;42.708;23.310;2023-02-23T04:34:19;94912.44;;;5.22;89.46
16451;BME280;12243;42.708;23.310;2023-02-23T04:36:46;94915.00;;;5.22;90.02
16451;BME280;12243;42.708;23.310;2023-02-23T04:39:15;94917.31;;;5.27;89.46
16451;BME280;12243;42.708;23.310;2023-02-23T04:41:42;94911.72;;;5.33;89.14
16451;BME280;12243;42.708;23.310;2023-02-23T04:44:09;94921.78;;;5.38;88.99
16451;BME280;12243;42.708;23.310;2023-02-23T04:46:36;94921.66;;;5.27;89.41
16451;BME280;12243;42.708;23.310;2023-02-23T04:49:03;94918.72;;;5.18;89.32
16451;BME280;12243;42.708;23.310;2023-02-23T04:51:31;94911.91;;;5.17;90.23
16451;BME280;12243;42.708;23.310;2023-02-23T04:53:58;94915.19;;;5.19;89.83
16451;BME280;12243;42.708;23.310;2023-02-23T04:56:25;94918.72;;;5.18;89.94
16451;BME280;12243;42.708;23.310;2023-02-23T04:58:52;94914.28;;;5.20;90.10
16451;BME280;12243;42.708;23.310;2023-02-23T05:01:19;94914.09;;;5.23;90.58
16451;BME280;12243;42.708;23.310;2023-02-23T05:03:47;94912.97;;;5.28;89.95
16451;BME280;12243;42.708;23.310;2023-02-23T05:06:15;94916.06;;;5.33;89.66
16451;BME280;12243;42.708;23.310;2023-02-23T05:08:43;94919.41;;;5.35;89.09
16451;BME280;12243;42.708;23.310;2023-02-23T05:11:10;94917.13;;;5.30;89.20
16451;BME280;12243;42.708;23.310;2023-02-23T05:13:38;94912.78;;;5.31;88.97
16451;BME280;12243;42.708;23.310;2023-02-23T05:16:06;94914.22;;;5.35;88.16
16451;BME280;12243;42.708;23.310;2023-02-23T05:18:33;94921.03;;;5.36;88.50
16451;BME280;12243;42.708;23.310;2023-02-23T05:21:04;94918.66;;;5.33;88.20
16451;BME280;12243;42.708;23.310;2023-02-23T05:23:32;94922.38;;;5.29;88.05
16451;BME280;12243;42.708;23.310;2023-02-23T05:26:02;94928.66;;;5.24;87.91
16451;BME280;12243;42.708;23.310;2023-02-23T05:28:31;94931.34;;;5.23;88.01
16451;BME280;12243;42.708;23.310;2023-02-23T05:30:58;94927.84;;;5.24;88.02
16451;BME280;12243;42.708;23.310;2023-02-23T05:33:25;94931.81;;;5.15;88.47
16451;BME280;12243;42.708;23.310;2023-02-23T05:35:52;94932.75;;;5.14;88.90
16451;BME280;12243;42.708;23.310;2023-02-23T05:38:18;94935.03;;;5.19;88.33
16451;BME280;12243;42.708;23.310;2023-02-23T05:40:46;94931.44;;;5.21;88.98
16451;BME280;12243;42.708;23.310;2023-02-23T05:43:15;94945.09;;;5.23;87.85
16451;BME280;12243;42.708;23.310;2023-02-23T05:45:42;94945.78;;;5.25;87.80
16451;BME280;12243;42.708;23.310;2023-02-23T05:48:09;94945.78;;;5.25;87.65
16451;BME280;12243;42.708;23.310;2023-02-23T05:50:37;94950.88;;;5.27;87.79
16451;BME280;12243;42.708;23.310;2023-02-23T05:53:04;94955.75;;;5.32;87.97
16451;BME280;12243;42.708;23.310;2023-02-23T05:55:31;94961.03;;;5.43;87.02
16451;BME280;12243;42.708;23.310;2023-02-23T05:57:58;94970.88;;;5.50;86.40
16451;BME280;12243;42.708;23.310;2023-02-23T06:00:26;94973.00;;;5.58;86.90
16451;BME280;12243;42.708;23.310;2023-02-23T06:02:53;94968.03;;;5.68;85.82
16451;BME280;12243;42.708;23.310;2023-02-23T06:05:20;94975.19;;;5.77;86.87
16451;BME280;12243;42.708;23.310;2023-02-23T06:07:47;94967.34;;;5.91;85.83
16451;BME280;12243;42.708;23.310;2023-02-23T06:10:14;94977.97;;;6.01;84.76
16451;BME280;12243;42.708;23.310;2023-02-23T06:12:41;94977.25;;;6.12;83.94
16451;BME280;12243;42.708;23.310;2023-02-23T06:15:09;94978.72;;;6.29;83.40
16451;BME280;12243;42.708;23.310;2023-02-23T06:17:37;94980.16;;;6.33;82.69
16451;BME280;12243;42.708;23.310;2023-02-23T06:20:05;94983.97;;;6.40;82.56
16451;BME280;12243;42.708;23.310;2023-02-23T06:22:32;94988.34;;;6.52;82.33
16451;BME280;12243;42.708;23.310;2023-02-23T06:24:59;94991.31;;;6.59;82.08
16451;BME280;12243;42.708;23.310;2023-02-23T06:27:30;94983.66;;;6.70;81.33
16451;BME280;12243;42.708;23.310;2023-02-23T06:29:56;94985.91;;;6.75;80.44
16451;BME280;12243;42.708;23.310;2023-02-23T06:32:23;94994.59;;;6.86;80.34
16451;BME280;12243;42.708;23.310;2023-02-23T06:34:53;94993.31;;;7.05;80.28
16451;BME280;12243;42.708;23.310;2023-02-23T06:37:20;94996.81;;;7.16;79.50
16451;BME280;12243;42.708;23.310;2023-02-23T06:39:47;94998.25;;;7.21;78.11
16451;BME280;12243;42.708;23.310;2023-02-23T06:42:15;95007.16;;;7.16;78.46
16451;BME280;12243;42.708;23.310;2023-02-23T06:44:42;94997.59;;;7.30;77.96
16451;BME280;12243;42.708;23.310;2023-02-23T06:47:09;94997.19;;;7.36;78.05
16451;BME280;12243;42.708;23.310;2023-02-23T06:49:36;95003.56;;;7.43;77.25
16451;BME280;12243;42.708;23.310;2023-02-23T06:52:06;95006.38;;;7.40;77.45
16451;BME280;12243;42.708;23.310;2023-02-23T06:54:33;95004.22;;;7.34;78.17
16451;BME280;12243;42.708;23.310;2023-02-23T06:57:00;95000.84;;;7.45;77.69
16451;BME280;12243;42.708;23.310;2023-02-23T06:59:26;95000.44;;;7.51;77.09
16451;BME280;12243;42.708;23.310;2023-02-23T07:01:54;94993.53;;;7.62;75.92
16451;BME280;12243;42.708;23.310;2023-02-23T07:04:22;94998.94;;;7.59;75.33
16451;BME280;12243;42.708;23.310;2023-02-23T07:06:49;94997.22;;;7.47;76.57
16451;BME280;12243;42.708;23.310;2023-02-23T07:09:17;94994.34;;;7.39;77.02
16451;BME280;12243;42.708;23.310;2023-02-23T07:11:44;94992.88;;;7.72;76.33
16451;BME280;12243;42.708;23.310;2023-02-23T07:14:11;94998.34;;;7.91;76.23
16451;BME280;12243;42.708;23.310;2023-02-23T07:16:38;94993.03;;;8.17;75.23
16451;BME280;12243;42.708;23.310;2023-02-23T07:19:05;95001.88;;;8.25;73.97
16451;BME280;12243;42.708;23.310;2023-02-23T07:21:32;94999.72;;;8.19;74.12
16451;BME280;12243;42.708;23.310;2023-02-23T07:24:00;94999.06;;;8.28;74.36
16451;BME280;12243;42.708;23.310;2023-02-23T07:26:29;94988.63;;;8.52;73.64
16451;BME280;12243;42.708;23.310;2023-02-23T07:28:56;94996.78;;;8.70;72.74
16451;BME280;12243;42.708;23.310;2023-02-23T07:31:22;94991.25;;;8.86;71.62
16451;BME280;12243;42.708;23.310;2023-02-23T07:33:50;94985.09;;;8.98;71.70
16451;BME280;12243;42.708;23.310;2023-02-23T07:36:19;94983.66;;;9.17;70.65
16451;BME280;12243;42.708;23.310;2023-02-23T07:38:46;94986.91;;;9.41;69.60
16451;BME280;12243;42.708;23.310;2023-02-23T07:41:13;94980.28;;;9.60;69.03
16451;BME280;12243;42.708;23.310;2023-02-23T07:43:42;94987.28;;;9.80;68.74
16451;BME280;12243;42.708;23.310;2023-02-23T07:46:08;94986.03;;;9.95;67.33
16451;BME280;12243;42.708;23.310;2023-02-23T07:48:35;94979.84;;;10.08;67.43
16451;BME280;12243;42.708;23.310;2023-02-23T07:51:08;94982.63;;;10.16;65.66
16451;BME280;12243;42.708;23.310;2023-02-23T07:53:34;94981.38;;;10.31;66.30
16451;BME280;12243;42.708;23.310;2023-02-23T07:56:02;94977.94;;;10.52;65.66
16451;BME280;12243;42.708;23.310;2023-02-23T07:58:29;94980.09;;;10.67;64.02
16451;BME280;12243;42.708;23.310;2023-02-23T08:00:58;94979.19;;;10.78;63.96
16451;BME280;12243;42.708;23.310;2023-02-23T08:03:25;94983.19;;;10.82;63.08
16451;BME280;12243;42.708;23.310;2023-02-23T08:05:52;94975.53;;;10.90;63.48
16451;BME280;12243;42.708;23.310;2023-02-23T08:08:19;94983.94;;;11.04;62.78
16451;BME280;12243;42.708;23.310;2023-02-23T08:10:46;94981.25;;;11.15;61.74
16451;BME280;12243;42.708;23.310;2023-02-23T08:13:14;94977.84;;;11.24;62.27
16451;BME280;12243;42.708;23.310;2023-02-23T08:15:41;94981.56;;;11.31;61.56
16451;BME280;12243;42.708;23.310;2023-02-23T08:18:09;94980.06;;;11.38;61.40
16451;BME280;12243;42.708;23.310;2023-02-23T08:20:36;94972.38;;;11.27;61.12
16451;BME280;12243;42.708;23.310;2023-02-23T08:23:03;94978.84;;;11.42;61.13
16451;BME280;12243;42.708;23.310;2023-02-23T08:25:30;94969.25;;;11.53;61.16
16451;BME280;12243;42.708;23.310;2023-02-23T08:27:57;94976.66;;;11.57;60.15
16451;BME280;12243;42.708;23.310;2023-02-23T08:30:29;94972.97;;;11.60;60.19
16451;BME280;12243;42.708;23.310;2023-02-23T08:32:56;94977.50;;;11.67;60.11
16451;BME280;12243;42.708;23.310;2023-02-23T08:35:25;94970.13;;;11.82;59.01
16451;BME280;12243;42.708;23.310;2023-02-23T08:37:51;94980.81;;;11.79;59.51
16451;BME280;12243;42.708;23.310;2023-02-23T08:40:19;94979.34;;;11.86;58.79
16451;BME280;12243;42.708;23.310;2023-02-23T08:42:46;94962.56;;;11.99;59.54
16451;BME280;12243;42.708;23.310;2023-02-23T08:45:17;94963.28;;;12.01;59.13
16451;BME280;12243;42.708;23.310;2023-02-23T08:47:44;94966.56;;;12.12;58.75
16451;BME280;12243;42.708;23.310;2023-02-23T08:50:12;94969.59;;;12.27;58.07
16451;BME280;12243;42.708;23.310;2023-02-23T08:52:40;94965.56;;;12.43;57.14
16451;BME280;12243;42.708;23.310;2023-02-23T08:55:09;94964.56;;;12.53;57.04
16451;BME280;12243;42.708;23.310;2023-02-23T08:57:36;94965.66;;;12.51;57.11
16451;BME280;12243;42.708;23.310;2023-02-23T09:00:05;94963.34;;;12.48;57.94
16451;BME280;12243;42.708;23.310;2023-02-23T09:02:38;94967.53;;;12.78;56.36
16451;BME280;12243;42.708;23.310;2023-02-23T09:05:06;94956.75;;;12.91;56.16
16451;BME280;12243;42.708;23.310;2023-02-23T09:07:33;94961.09;;;13.00;56.37
16451;BME280;12243;42.708;23.310;2023-02-23T09:10:02;94963.25;;;13.14;55.12
16451;BME280;12243;42.708;23.310;2023-02-23T09:12:29;94959.06;;;13.31;54.76
16451;BME280;12243;42.708;23.310;2023-02-23T09:14:56;94957.38;;;13.40;54.24
16451;BME280;12243;42.708;23.310;2023-02-23T09:17:23;94950.38;;;13.58;54.32
16451;BME280;12243;42.708;23.310;2023-02-23T09:19:51;94955.09;;;13.72;53.18
16451;BME280;12243;42.708;23.310;2023-02-23T09:22:17;94948.59;;;13.76;53.14
16451;BME280;12243;42.708;23.310;2023-02-23T09:24:44;94954.50;;;13.78;52.79
16451;BME280;12243;42.708;23.310;2023-02-23T09:27:13;94947.41;;;13.89;52.75
16451;BME280;12243;42.708;23.310;2023-02-23T09:29:40;94951.72;;;13.98;52.86
16451;BME280;12243;42.708;23.310;2023-02-23T09:32:08;94950.88;;;14.15;52.41
16451;BME280;12243;42.708;23.310;2023-02-23T09:34:35;94956.56;;;14.28;51.54
16451;BME280;12243;42.708;23.310;2023-02-23T09:37:02;94950.97;;;14.23;51.22
16451;BME280;12243;42.708;23.310;2023-02-23T09:39:29;94954.97;;;14.36;51.28
16451;BME280;12243;42.708;23.310;2023-02-23T09:42:04;94959.91;;;14.39;50.80
16451;BME280;12243;42.708;23.310;2023-02-23T09:44:54;94961.09;;;14.62;50.56
16451;BME280;12243;42.708;23.310;2023-02-23T09:47:30;94950.38;;;14.82;50.03
16451;BME280;12243;42.708;23.310;2023-02-23T09:50:10;94956.41;;;15.08;48.94
16451;BME280;12243;42.708;23.310;2023-02-23T09:52:41;94939.75;;;15.17;48.89
16451;BME280;12243;42.708;23.310;2023-02-23T09:55:12;94948.75;;;15.23;48.18
16451;BME280;12243;42.708;23.310;2023-02-23T09:57:43;94940.94;;;15.31;48.78
16451;BME280;12243;42.708;23.310;2023-02-23T10:00:16;94942.16;;;15.53;47.63
16451;BME280;12243;42.708;23.310;2023-02-23T10:02:57;94940.25;;;15.71;46.99
16451;BME280;12243;42.708;23.310;2023-02-23T10:05:28;94937.28;;;15.75;46.80
16451;BME280;12243;42.708;23.310;2023-02-23T10:08:02;94934.66;;;15.66;46.54
16451;BME280;12243;42.708;23.310;2023-02-23T10:10:38;94935.94;;;15.62;47.35
16451;BME280;12243;42.708;23.310;2023-02-23T10:13:14;94936.59;;;15.64;47.16
16451;BME280;12243;42.708;23.310;2023-02-23T10:15:52;94927.78;;;15.82;47.25
16451;BME280;12243;42.708;23.310;2023-02-23T10:18:28;94925.84;;;15.84;46.83
16451;BME280;12243;42.708;23.310;2023-02-23T10:21:02;94925.19;;;16.06;45.74
16451;BME280;12243;42.708;23.310;2023-02-23T10:23:34;94921.91;;;16.04;45.47
16451;BME280;12243;42.708;23.310;2023-02-23T10:26:04;94918.28;;;16.05;45.45
16451;BME280;12243;42.708;23.310;2023-02-23T10:28:34;94925.50;;;16.28;45.09
16451;BME280;12243;42.708;23.310;2023-02-23T10:31:17;94908.56;;;16.55;44.77
16451;BME280;12243;42.708;23.310;2023-02-23T10:33:50;94907.53;;;16.72;43.83
16451;BME280;12243;42.708;23.310;2023-02-23T10:36:28;94900.28;;;16.82;43.37
16451;BME280;12243;42.708;23.310;2023-02-23T10:38:57;94899.78;;;16.95;43.58
16451;BME280;12243;42.708;23.310;2023-02-23T10:41:24;94894.47;;;17.03;43.19
16451;BME280;12243;42.708;23.310;2023-02-23T10:43:51;94891.97;;;17.10;42.96
16451;BME280;12243;42.708;23.310;2023-02-23T10:46:21;94899.00;;;17.18;42.58
16451;BME280;12243;42.708;23.310;2023-02-23T10:48:50;94890.22;;;17.33;42.78
16451;BME280;12243;42.708;23.310;2023-02-23T10:51:24;94887.00;;;17.23;42.60
16451;BME280;12243;42.708;23.310;2023-02-23T10:53:53;94880.53;;;17.26;42.67
16451;BME280;12243;42.708;23.310;2023-02-23T10:56:22;94880.84;;;17.31;42.82
16451;BME280;12243;42.708;23.310;2023-02-23T10:58:51;94875.63;;;17.23;42.48
16451;BME280;12243;42.708;23.310;2023-02-23T11:01:33;94866.78;;;17.16;42.61
16451;BME280;12243;42.708;23.310;2023-02-23T11:04:12;94870.06;;;17.18;41.78
16451;BME280;12243;42.708;23.310;2023-02-23T11:06:42;94867.09;;;17.21;42.44
16451;BME280;12243;42.708;23.310;2023-02-23T11:09:25;94854.34;;;17.32;42.57
16451;BME280;12243;42.708;23.310;2023-02-23T11:11:57;94867.00;;;17.37;42.66
16451;BME280;12243;42.708;23.310;2023-02-23T11:14:25;94856.59;;;17.44;42.34
16451;BME280;12243;42.708;23.310;2023-02-23T11:16:56;94855.44;;;17.69;41.96
16451;BME280;12243;42.708;23.310;2023-02-23T11:19:33;94851.28;;;17.75;41.37
16451;BME280;12243;42.708;23.310;2023-02-23T11:22:02;94854.41;;;17.78;41.23
16451;BME280;12243;42.708;23.310;2023-02-23T11:24:32;94846.56;;;17.93;40.80
16451;BME280;12243;42.708;23.310;2023-02-23T11:27:02;94849.34;;;17.92;41.23
16451;BME280;12243;42.708;23.310;2023-02-23T11:29:33;94841.31;;;18.08;40.38
16451;BME280;12243;42.708;23.310;2023-02-23T11:32:07;94843.16;;;18.22;40.82
16451;BME280;12243;42.708;23.310;2023-02-23T11:34:35;94835.91;;;18.39;40.07
16451;BME280;12243;42.708;23.310;2023-02-23T11:37:06;94834.19;;;18.46;39.81
16451;BME280;12243;42.708;23.310;2023-02-23T11:39:50;94829.94;;;18.45;40.12
16451;BME280;12243;42.708;23.310;2023-02-23T11:42:19;94830.63;;;18.69;43.85
16451;BME280;12243;42.708;23.310;2023-02-23T11:44:50;94827.00;;;18.99;52.07
16451;BME280;12243;42.708;23.310;2023-02-23T11:47:20;94823.78;;;19.19;46.51
16451;BME280;12243;42.708;23.310;2023-02-23T11:49:48;94823.94;;;19.32;46.06
16451;BME280;12243;42.708;23.310;2023-02-23T11:52:19;94824.47;;;19.27;39.59
16451;BME280;12243;42.708;23.310;2023-02-23T11:54:51;94824.81;;;19.18;38.74
16451;BME280;12243;42.708;23.310;2023-02-23T11:57:20;94826.31;;;19.27;38.59
16451;BME280;12243;42.708;23.310;2023-02-23T11:59:48;94820.38;;;19.40;37.82
16451;BME280;12243;42.708;23.310;2023-02-23T12:02:22;94821.41;;;19.45;37.58
16451;BME280;12243;42.708;23.310;2023-02-23T12:04:52;94820.59;;;19.45;37.40
16451;BME280;12243;42.708;23.310;2023-02-23T12:07:32;94816.13;;;19.45;36.38
16451;BME280;12243;42.708;23.310;2023-02-23T12:10:12;94815.66;;;19.35;37.14
16451;BME280;12243;42.708;23.310;2023-02-23T12:12:48;94813.09;;;19.27;37.14
16451;BME280;12243;42.708;23.310;2023-02-23T12:15:27;94814.63;;;19.36;37.18
16451;BME280;12243;42.708;23.310;2023-02-23T12:18:03;94800.94;;;19.47;36.73
16451;BME280;12243;42.708;23.310;2023-02-23T12:20:37;94807.09;;;19.55;37.06
16451;BME280;12243;42.708;23.310;2023-02-23T12:23:09;94806.69;;;19.72;36.26
16451;BME280;12243;42.708;23.310;2023-02-23T12:25:43;94807.75;;;19.78;36.07
16451;BME280;12243;42.708;23.310;2023-02-23T12:28:17;94804.38;;;19.84;35.94
16451;BME280;12243;42.708;23.310;2023-02-23T12:30:49;94788.03;;;19.59;36.53
16451;BME280;12243;42.708;23.310;2023-02-23T12:33:23;94792.78;;;19.42;36.96
16451;BME280;12243;42.708;23.310;2023-02-23T12:35:57;94799.28;;;19.25;36.86
16451;BME280;12243;42.708;23.310;2023-02-23T12:38:30;94800.84;;;19.19;37.00
16451;BME280;12243;42.708;23.310;2023-02-23T12:41:04;94796.91;;;19.30;37.21
16451;BME280;12243;42.708;23.310;2023-02-23T12:43:36;94789.47;;;19.40;37.08
16451;BME280;12243;42.708;23.310;2023-02-23T12:46:10;94791.25;;;19.33;36.46
16451;BME280;12243;42.708;23.310;2023-02-23T12:48:47;94796.38;;;19.20;36.49
16451;BME280;12243;42.708;23.310;2023-02-23T12:51:21;94798.31;;;19.11;36.61
16451;BME280;12243;42.708;23.310;2023-02-23T12:53:51;94787.31;;;19.08;36.89
16451;BME280;12243;42.708;23.310;2023-02-23T13:02:04;94787.72;;;19.26;37.05
16451;BME280;12243;42.708;23.310;2023-02-23T13:05:01;94776.72;;;19.44;36.63
16451;BME280;12243;42.708;23.310;2023-02-23T13:07:38;94771.63;;;19.42;36.84
16451;BME280;12243;42.708;23.310;2023-02-23T13:10:19;94778.16;;;19.25;37.11
16451;BME280;12243;42.708;23.310;2023-02-23T13:12:55;94785.66;;;19.21;37.56
16451;BME280;12243;42.708;23.310;2023-02-23T13:15:34;94791.47;;;19.17;37.56
16451;BME280;12243;42.708;23.310;2023-02-23T13:18:10;94789.84;;;19.16;37.87
16451;BME280;12243;42.708;23.310;2023-02-23T13:20:44;94789.84;;;19.16;37.71
16451;BME280;12243;42.708;23.310;2023-02-23T13:23:20;94775.09;;;19.07;37.97
16451;BME280;12243;42.708;23.310;2023-02-23T13:25:51;94777.13;;;19.04;37.78
16451;BME280;12243;42.708;23.310;2023-02-23T13:28:35;94775.88;;;19.00;37.41
16451;BME280;12243;42.708;23.310;2023-02-23T13:31:03;94771.97;;;18.82;37.96
16451;BME280;12243;42.708;23.310;2023-02-23T13:33:30;94774.91;;;18.72;38.14
16451;BME280;12243;42.708;23.310;2023-02-23T13:36:01;94767.63;;;18.74;38.60